Moline, Ohio
Current Conditions -  °F | °C
As of 6:53 PM on Friday 31 Oct 2014 (Local Time) from KTDZ Reporting Station
Light Snow Light Snow  
Wind Chill: 27°   Ceiling: 1300
Heat Index: 38°   Visibility: 7mi
Dew Point: 34°   Wind: 22mph
Humidity: 86%   Direction: 350°N
Pressure: 29.98"   Gusts: 32mph
Location:  41.5666°N, 83.5031°W
Report Text: KTDZ 312253Z AUTO 35019G28KT 7SM -SN OVC013 03/01 A2998 RMK AO2 PK WND 36028/2251 RAE35B46E53SNB35 SLP155 P0004 T00330011 TSNO
Loading
Personal Weather Stations






























Interactive Weather Map
Tropical Storm Tracking
New forecast layout! Learn more

10-Day Weather Forecast

Advertisements
Track Severe Weather on mobile